Island Sky — CFN5148 — position and weather

sailwx.info

Track history (hours):
 
Tides and Currents Weather Stations Pressure Air Temp Water Temp Dewpoint Dewpoint Depression Visibility Wind Speed Wind Dir Waves Ship Positions

Island Sky

Last reported at 2018-Apr-20 14:11 UTC. Time now 2018-Apr-20 14:44 UTC.
Position N 49°47' W 124°11'.

Length 100 m; draft 4.6 m.

Type: Passenger vessel. MMSI: 316012774.

Date/timePositionNaut miles runAvg speedWind from/ knotsBaromVisibWave heightAir tempDewpointWater temp
2018-Apr-20 14:11N 49°47' W 124°11'2 1.6
2018-Apr-20 12:46N 49°47' W 124°07'2 0.3
2018-Apr-20 06:11N 49°47' W 124°10'1 0.6
2018-Apr-20 04:38N 49°46' W 124°09'1 1.3
2018-Apr-20 03:44N 49°47' W 124°11'7 3.7
2018-Apr-20 01:55N 49°45' W 124°00'5 8.5
2018-Apr-20 01:21N 49°46' W 124°08'2 4.3
2018-Apr-20 00:54N 49°47' W 124°11'1 0.6
2018-Apr-19 22:48N 49°46' W 124°09'1 0.5
2018-Apr-19 20:31N 49°47' W 124°11'0 0.2
2018-Apr-19 20:29N 49°47' W 124°11'7 9.9
2018-Apr-19 19:46N 49°46' W 123°60'6 5.0
2018-Apr-19 18:35N 49°46' W 124°09'110.9
2018-Apr-19 18:30N 49°46' W 124°10'6 6.1
2018-Apr-19 17:28N 49°45' W 124°00'6 6.6
2018-Apr-19 16:35N 49°46' W 124°09'111.7
2018-Apr-19 16:29N 49°47' W 124°11'7 7.2
2018-Apr-19 15:32N 49°45' W 124°00'5 6.1
2018-Apr-19 14:41N 49°47' W 124°08'2 5.0
2018-Apr-19 14:20N 49°47' W 124°11'811.3
2018-Apr-19 13:40N 49°46' W 123°59'1 4.0
2018-Apr-19 13:21N 49°45' W 124°00'5 8.3
2018-Apr-19 12:46N 49°46' W 124°08'2 0.3
2018-Apr-19 06:18N 49°47' W 124°11'7 6.4
2018-Apr-19 05:08N 49°46' W 123°59'612.6
2018-Apr-19 04:38N 49°46' W 124°09'1 1.3
2018-Apr-19 03:42N 49°47' W 124°10'1 0.5
2018-Apr-19 01:14N 49°46' W 124°09'1 3.8
2018-Apr-19 00:55N 49°47' W 124°11'1 0.7
2018-Apr-18 22:55N 49°46' W 124°09'1 0.7
2018-Apr-18 20:58N 49°47' W 124°11'0 0.1
2018-Apr-18 20:29N 49°47' W 124°11'1 0.6
2018-Apr-18 18:35N 49°46' W 124°09'110.6
2018-Apr-18 18:30N 49°46' W 124°10'1 1.1
2018-Apr-18 18:00N 49°46' W 124°09'0 0.1
2018-Apr-18 16:30N 49°46' W 124°09'0 0.2
2018-Apr-18 14:36N 49°46' W 124°09'111.0
2018-Apr-18 14:30N 49°47' W 124°10'7 8.0
2018-Apr-18 13:37N 49°46' W 123°59'6 6.5
2018-Apr-18 12:41N 49°46' W 124°09'1 0.2
2018-Apr-18 06:16N 49°47' W 124°11'1 0.6
2018-Apr-18 04:38N 49°46' W 124°09'1 0.9
2018-Apr-18 03:43N 49°47' W 124°10'1 0.4
2018-Apr-18 01:14N 49°46' W 124°09'1 3.4
2018-Apr-18 00:53N 49°47' W 124°11'1 0.5
2018-Apr-17 22:46N 49°46' W 124°09'1 0.2
2018-Apr-17 20:19N 49°47' W 124°10'1 0.4
2018-Apr-17 18:32N 49°46' W 124°09'012.2
2018-Apr-17 18:30N 49°46' W 124°10'0 0.1
2018-Apr-17 16:34N 49°46' W 124°09'111.0
2018-Apr-17 16:28N 49°47' W 124°10'1 0.7
2018-Apr-17 14:37N 49°46' W 124°09'110.6
2018-Apr-17 14:30N 49°47' W 124°11'1 0.6
2018-Apr-17 12:40N 49°46' W 124°09'1 0.2
2018-Apr-17 06:12N 49°47' W 124°10'1 0.7
2018-Apr-17 04:38N 49°46' W 124°09'1 1.2
2018-Apr-17 03:41N 49°47' W 124°11'1 0.5
2018-Apr-17 01:13N 49°46' W 124°09'1 2.6
2018-Apr-17 00:50N 49°47' W 124°10'1 0.5
2018-Apr-16 22:49N 49°46' W 124°09'1 0.2
2018-Apr-16 20:21N 49°46' W 124°10'1 0.3
2018-Apr-16 18:33N 49°46' W 124°09'111.0
2018-Apr-16 18:30N 49°46' W 124°10'6 4.7
2018-Apr-16 17:11N 49°45' W 124°00'6 8.7
2018-Apr-16 16:32N 49°46' W 124°09'012.8
2018-Apr-16 16:30N 49°46' W 124°10'0 0.2
2018-Apr-16 14:35N 49°46' W 124°09'110.8
2018-Apr-16 14:29N 49°47' W 124°11'1 0.5
2018-Apr-16 12:39N 49°46' W 124°09'1 0.1
2018-Apr-16 06:09N 49°47' W 124°10'1 0.3
2018-Apr-16 03:36N 49°46' W 124°09'0 0.2
2018-Apr-16 01:15N 49°46' W 124°09'1 2.1
2018-Apr-16 00:47N 49°47' W 124°10'0 0.1
2018-Apr-15 20:29N 49°47' W 124°11'1 0.6
2018-Apr-15 18:30N 49°46' W 124°09'6 4.2
2018-Apr-15 17:08N 49°45' W 124°00'6 9.7
2018-Apr-15 16:32N 49°46' W 124°09'012.5
2018-Apr-15 16:30N 49°46' W 124°10'0 0.0
2018-Apr-15 06:10N 49°46' W 124°10'0 0.2
2018-Apr-15 04:34N 49°46' W 124°09'1 0.9
2018-Apr-15 03:42N 49°47' W 124°10'1 0.4
2018-Apr-15 01:11N 49°46' W 124°09'0 1.1
2018-Apr-15 00:46N 49°46' W 124°10'0 0.2
2018-Apr-14 22:45N 49°46' W 124°09'0 0.2
2018-Apr-14 20:23N 49°46' W 124°10'0 0.2
2018-Apr-14 18:33N 49°46' W 124°10'0 0.2
2018-Apr-14 18:07N 49°46' W 124°09'0 0.1
2018-Apr-14 16:31N 49°46' W 124°09'014.2
2018-Apr-14 16:30N 49°46' W 124°10'0 0.2
2018-Apr-14 14:36N 49°46' W 124°09'1 1.2
2018-Apr-14 14:10N 49°46' W 124°10'1 0.5
2018-Apr-14 12:43N 49°46' W 124°09'1 0.2
2018-Apr-14 06:10N 49°47' W 124°10'1 0.7
2018-Apr-14 04:35N 49°46' W 124°09'1 1.2
2018-Apr-14 03:38N 49°47' W 124°10'2 0.9
2018-Apr-14 01:18N 49°47' W 124°07'2 3.2
2018-Apr-14 00:44N 49°46' W 124°10'1 0.4
2018-Apr-13 22:48N 49°46' W 124°09'1 0.5
2018-Apr-13 20:24N 49°47' W 124°10'1 0.5
2018-Apr-13 18:29N 49°46' W 124°09'0 0.1
2018-Apr-13 16:32N 49°46' W 124°09'113.8
2018-Apr-13 16:30N 49°46' W 124°10'0 0.2
2018-Apr-13 14:33N 49°46' W 124°09'1 3.0
2018-Apr-13 14:12N 49°47' W 124°11'1 0.8
2018-Apr-13 12:43N 49°46' W 124°09'1 0.2
2018-Apr-13 06:10N 49°47' W 124°10'1 0.7
2018-Apr-13 04:36N 49°46' W 124°09'1 1.1
2018-Apr-13 03:38N 49°47' W 124°10'1 0.4
2018-Apr-13 01:12N 49°46' W 124°09'1 3.1
2018-Apr-13 00:51N 49°47' W 124°11'1 0.6
2018-Apr-12 22:45N 49°46' W 124°09'1 0.3
2018-Apr-12 20:23N 49°46' W 124°10'1 0.4
2018-Apr-12 18:30N 49°46' W 124°09'0 0.0
2018-Apr-12 16:32N 49°46' W 124°09'014.4
2018-Apr-12 16:30N 49°46' W 124°10'2 0.8
2018-Apr-12 14:41N 49°47' W 124°07'2 4.9
2018-Apr-12 14:15N 49°47' W 124°11'1 0.7
2018-Apr-12 12:40N 49°46' W 124°09'1 0.2
2018-Apr-12 06:22N 49°47' W 124°11'1 0.2
2018-Apr-12 01:16N 49°46' W 124°09'1 1.7
2018-Apr-12 00:50N 49°47' W 124°10'1 0.3
2018-Apr-11 22:45N 49°46' W 124°09'1 0.2
2018-Apr-11 20:20N 49°47' W 124°10'1 0.4
2018-Apr-11 18:26N 49°46' W 124°09'1 0.4
2018-Apr-11 16:27N 49°47' W 124°10'1 0.4
2018-Apr-11 14:34N 49°46' W 124°09'112.2
2018-Apr-11 14:30N 49°47' W 124°10'0 0.0
2018-Apr-11 06:17N 49°47' W 124°11'1 0.8
2018-Apr-11 04:42N 49°46' W 124°09'1 0.9
2018-Apr-11 03:42N 49°47' W 124°10'1 0.3
2018-Apr-11 01:12N 49°46' W 124°10'1 2.2
2018-Apr-11 00:50N 49°47' W 124°10'1 0.5
2018-Apr-10 22:47N 49°46' W 124°09'1 0.4
2018-Apr-10 20:25N 49°47' W 124°11'1 0.7
2018-Apr-10 18:27N 49°46' W 124°09'0 0.1
2018-Apr-10 16:30N 49°46' W 124°09'0 0.0
2018-Apr-10 14:34N 49°46' W 124°09'112.0
2018-Apr-10 14:30N 49°47' W 124°10'  
Track history (hours):
 
Tides and Currents Weather Stations Pressure Air Temp Water Temp Dewpoint Dewpoint Depression Visibility Wind Speed Wind Dir Waves Ship Positions

Island Sky

Last reported at 2018-Apr-20 14:11 UTC. Time now 2018-Apr-20 14:44 UTC.
Position N 49°47' W 124°11'.

Length 100 m; draft 4.6 m.

Type: Passenger vessel. MMSI: 316012774.

Date/timePositionNaut miles runAvg speedWind from/ knotsBaromVisibWave heightAir tempDewpointWater temp
2018-Apr-20 14:11N 49°47' W 124°11'2 1.6
2018-Apr-20 12:46N 49°47' W 124°07'2 0.3
2018-Apr-20 06:11N 49°47' W 124°10'1 0.6
2018-Apr-20 04:38N 49°46' W 124°09'1 1.3
2018-Apr-20 03:44N 49°47' W 124°11'7 3.7
2018-Apr-20 01:55N 49°45' W 124°00'5 8.5
2018-Apr-20 01:21N 49°46' W 124°08'2 4.3
2018-Apr-20 00:54N 49°47' W 124°11'1 0.6
2018-Apr-19 22:48N 49°46' W 124°09'1 0.5
2018-Apr-19 20:31N 49°47' W 124°11'0 0.2
2018-Apr-19 20:29N 49°47' W 124°11'7 9.9
2018-Apr-19 19:46N 49°46' W 123°60'6 5.0
2018-Apr-19 18:35N 49°46' W 124°09'110.9
2018-Apr-19 18:30N 49°46' W 124°10'6 6.1
2018-Apr-19 17:28N 49°45' W 124°00'6 6.6
2018-Apr-19 16:35N 49°46' W 124°09'111.7
2018-Apr-19 16:29N 49°47' W 124°11'7 7.2
2018-Apr-19 15:32N 49°45' W 124°00'5 6.1
2018-Apr-19 14:41N 49°47' W 124°08'2 5.0
2018-Apr-19 14:20N 49°47' W 124°11'811.3
2018-Apr-19 13:40N 49°46' W 123°59'1 4.0
2018-Apr-19 13:21N 49°45' W 124°00'5 8.3
2018-Apr-19 12:46N 49°46' W 124°08'2 0.3
2018-Apr-19 06:18N 49°47' W 124°11'7 6.4
2018-Apr-19 05:08N 49°46' W 123°59'612.6
2018-Apr-19 04:38N 49°46' W 124°09'1 1.3
2018-Apr-19 03:42N 49°47' W 124°10'1 0.5
2018-Apr-19 01:14N 49°46' W 124°09'1 3.8
2018-Apr-19 00:55N 49°47' W 124°11'1 0.7
2018-Apr-18 22:55N 49°46' W 124°09'1 0.7
2018-Apr-18 20:58N 49°47' W 124°11'0 0.1
2018-Apr-18 20:29N 49°47' W 124°11'1 0.6
2018-Apr-18 18:35N 49°46' W 124°09'110.6
2018-Apr-18 18:30N 49°46' W 124°10'1 1.1
2018-Apr-18 18:00N 49°46' W 124°09'0 0.1
2018-Apr-18 16:30N 49°46' W 124°09'0 0.2
2018-Apr-18 14:36N 49°46' W 124°09'111.0
2018-Apr-18 14:30N 49°47' W 124°10'7 8.0
2018-Apr-18 13:37N 49°46' W 123°59'6 6.5
2018-Apr-18 12:41N 49°46' W 124°09'1 0.2
2018-Apr-18 06:16N 49°47' W 124°11'1 0.6
2018-Apr-18 04:38N 49°46' W 124°09'1 0.9
2018-Apr-18 03:43N 49°47' W 124°10'1 0.4
2018-Apr-18 01:14N 49°46' W 124°09'1 3.4
2018-Apr-18 00:53N 49°47' W 124°11'1 0.5
2018-Apr-17 22:46N 49°46' W 124°09'1 0.2
2018-Apr-17 20:19N 49°47' W 124°10'1 0.4
2018-Apr-17 18:32N 49°46' W 124°09'012.2
2018-Apr-17 18:30N 49°46' W 124°10'0 0.1
2018-Apr-17 16:34N 49°46' W 124°09'111.0
2018-Apr-17 16:28N 49°47' W 124°10'1 0.7
2018-Apr-17 14:37N 49°46' W 124°09'110.6
2018-Apr-17 14:30N 49°47' W 124°11'1 0.6
2018-Apr-17 12:40N 49°46' W 124°09'1 0.2
2018-Apr-17 06:12N 49°47' W 124°10'1 0.7
2018-Apr-17 04:38N 49°46' W 124°09'1 1.2
2018-Apr-17 03:41N 49°47' W 124°11'1 0.5
2018-Apr-17 01:13N 49°46' W 124°09'1 2.6
2018-Apr-17 00:50N 49°47' W 124°10'1 0.5
2018-Apr-16 22:49N 49°46' W 124°09'1 0.2
2018-Apr-16 20:21N 49°46' W 124°10'1 0.3
2018-Apr-16 18:33N 49°46' W 124°09'111.0
2018-Apr-16 18:30N 49°46' W 124°10'6 4.7
2018-Apr-16 17:11N 49°45' W 124°00'6 8.7
2018-Apr-16 16:32N 49°46' W 124°09'012.8
2018-Apr-16 16:30N 49°46' W 124°10'0 0.2
2018-Apr-16 14:35N 49°46' W 124°09'110.8
2018-Apr-16 14:29N 49°47' W 124°11'1 0.5
2018-Apr-16 12:39N 49°46' W 124°09'1 0.1
2018-Apr-16 06:09N 49°47' W 124°10'1 0.3
2018-Apr-16 03:36N 49°46' W 124°09'0 0.2
2018-Apr-16 01:15N 49°46' W 124°09'1 2.1
2018-Apr-16 00:47N 49°47' W 124°10'0 0.1
2018-Apr-15 20:29N 49°47' W 124°11'1 0.6
2018-Apr-15 18:30N 49°46' W 124°09'6 4.2
2018-Apr-15 17:08N 49°45' W 124°00'6 9.7
2018-Apr-15 16:32N 49°46' W 124°09'012.5
2018-Apr-15 16:30N 49°46' W 124°10'0 0.0
2018-Apr-15 06:10N 49°46' W 124°10'0 0.2
2018-Apr-15 04:34N 49°46' W 124°09'1 0.9
2018-Apr-15 03:42N 49°47' W 124°10'1 0.4
2018-Apr-15 01:11N 49°46' W 124°09'0 1.1
2018-Apr-15 00:46N 49°46' W 124°10'0 0.2
2018-Apr-14 22:45N 49°46' W 124°09'0 0.2
2018-Apr-14 20:23N 49°46' W 124°10'0 0.2
2018-Apr-14 18:33N 49°46' W 124°10'0 0.2
2018-Apr-14 18:07N 49°46' W 124°09'0 0.1
2018-Apr-14 16:31N 49°46' W 124°09'014.2
2018-Apr-14 16:30N 49°46' W 124°10'0 0.2
2018-Apr-14 14:36N 49°46' W 124°09'1 1.2
2018-Apr-14 14:10N 49°46' W 124°10'1 0.5
2018-Apr-14 12:43N 49°46' W 124°09'1 0.2
2018-Apr-14 06:10N 49°47' W 124°10'1 0.7
2018-Apr-14 04:35N 49°46' W 124°09'1 1.2
2018-Apr-14 03:38N 49°47' W 124°10'2 0.9
2018-Apr-14 01:18N 49°47' W 124°07'2 3.2
2018-Apr-14 00:44N 49°46' W 124°10'1 0.4
2018-Apr-13 22:48N 49°46' W 124°09'1 0.5
2018-Apr-13 20:24N 49°47' W 124°10'1 0.5
2018-Apr-13 18:29N 49°46' W 124°09'0 0.1
2018-Apr-13 16:32N 49°46' W 124°09'113.8
2018-Apr-13 16:30N 49°46' W 124°10'0 0.2
2018-Apr-13 14:33N 49°46' W 124°09'1 3.0
2018-Apr-13 14:12N 49°47' W 124°11'1 0.8
2018-Apr-13 12:43N 49°46' W 124°09'1 0.2
2018-Apr-13 06:10N 49°47' W 124°10'1 0.7
2018-Apr-13 04:36N 49°46' W 124°09'1 1.1
2018-Apr-13 03:38N 49°47' W 124°10'1 0.4
2018-Apr-13 01:12N 49°46' W 124°09'1 3.1
2018-Apr-13 00:51N 49°47' W 124°11'1 0.6
2018-Apr-12 22:45N 49°46' W 124°09'1 0.3
2018-Apr-12 20:23N 49°46' W 124°10'1 0.4
2018-Apr-12 18:30N 49°46' W 124°09'0 0.0
2018-Apr-12 16:32N 49°46' W 124°09'014.4
2018-Apr-12 16:30N 49°46' W 124°10'2 0.8
2018-Apr-12 14:41N 49°47' W 124°07'2 4.9
2018-Apr-12 14:15N 49°47' W 124°11'1 0.7
2018-Apr-12 12:40N 49°46' W 124°09'1 0.2
2018-Apr-12 06:22N 49°47' W 124°11'1 0.2
2018-Apr-12 01:16N 49°46' W 124°09'1 1.7
2018-Apr-12 00:50N 49°47' W 124°10'1 0.3
2018-Apr-11 22:45N 49°46' W 124°09'1 0.2
2018-Apr-11 20:20N 49°47' W 124°10'1 0.4
2018-Apr-11 18:26N 49°46' W 124°09'1 0.4
2018-Apr-11 16:27N 49°47' W 124°10'1 0.4
2018-Apr-11 14:34N 49°46' W 124°09'112.2
2018-Apr-11 14:30N 49°47' W 124°10'0 0.0
2018-Apr-11 06:17N 49°47' W 124°11'1 0.8
2018-Apr-11 04:42N 49°46' W 124°09'1 0.9
2018-Apr-11 03:42N 49°47' W 124°10'1 0.3
2018-Apr-11 01:12N 49°46' W 124°10'1 2.2
2018-Apr-11 00:50N 49°47' W 124°10'1 0.5
2018-Apr-10 22:47N 49°46' W 124°09'1 0.4
2018-Apr-10 20:25N 49°47' W 124°11'1 0.7
2018-Apr-10 18:27N 49°46' W 124°09'0 0.1
2018-Apr-10 16:30N 49°46' W 124°09'0 0.0
2018-Apr-10 14:34N 49°46' W 124°09'112.0
2018-Apr-10 14:30N 49°47' W 124°10'  

Dump ship's entire track history